Tara — DHBW2 — position and weather

sailwx.info

Track history (hours):
 
Tides and Currents Weather Stations Pressure Air Temp Water Temp Dewpoint Dewpoint Depression Visibility Wind Speed Wind Dir Waves Ship Positions

Tara

Last reported at 2017-Aug-25 07:42 UTC. Time now 2017-Nov-24 18:43 UTC.
Position N 40°43' E 024°51'.
Warning: this ship's position is months out of date.

Length 10 m.

Type: Sailing vessel. MMSI: 211628890.

Date/timePositionNaut miles runAvg speedWind from/ knotsBaromVisibWave heightAir tempDewpointWater temp
2017-Aug-25 07:42N 40°43' E 024°51'1 6.0
2017-Aug-25 07:29N 40°44' E 024°50'2 4.4
2017-Aug-25 07:00N 40°45' E 024°47'2 4.9
2017-Aug-25 06:30N 40°47' E 024°45'2 3.0
2017-Aug-25 05:59N 40°47' E 024°42'0 0.0
2017-Aug-23 11:39N 40°47' E 024°42'0 0.0
2017-Aug-23 11:30N 40°47' E 024°42'1 2.1
2017-Aug-23 11:00N 40°47' E 024°41'3 5.6
2017-Aug-23 10:30N 40°49' E 024°38'3 5.9
2017-Aug-23 10:00N 40°51' E 024°35'3 5.6
2017-Aug-23 09:30N 40°52' E 024°32'2 3.9
2017-Aug-23 09:00N 40°53' E 024°30'2 4.7
2017-Aug-23 08:30N 40°54' E 024°27'2 4.0
2017-Aug-23 08:00N 40°55' E 024°25'1 1.2
2017-Aug-23 07:26N 40°56' E 024°24'0 0.0
2017-Aug-22 09:04N 40°56' E 024°24'0 0.0
2017-Aug-22 08:58N 40°56' E 024°24'0 0.0
2017-Aug-21 10:45N 40°56' E 024°24'0 0.0
2017-Aug-21 10:27N 40°56' E 024°24'0 0.1
2017-Aug-21 09:58N 40°56' E 024°24'1 3.0
2017-Aug-21 09:30N 40°55' E 024°24'2 4.4
2017-Aug-21 09:00N 40°53' E 024°22'3 5.7
2017-Aug-21 08:30N 40°51' E 024°20'1 1.7
2017-Aug-21 07:57N 40°51' E 024°19'0 0.0
2017-Aug-21 06:18N 40°51' E 024°19'  
Track history (hours):
 
Tides and Currents Weather Stations Pressure Air Temp Water Temp Dewpoint Dewpoint Depression Visibility Wind Speed Wind Dir Waves Ship Positions

Tara

Last reported at 2017-Aug-25 07:42 UTC. Time now 2017-Nov-24 18:43 UTC.
Position N 40°43' E 024°51'.
Warning: this ship's position is months out of date.

Length 10 m.

Type: Sailing vessel. MMSI: 211628890.

Date/timePositionNaut miles runAvg speedWind from/ knotsBaromVisibWave heightAir tempDewpointWater temp
2017-Aug-25 07:42N 40°43' E 024°51'1 6.0
2017-Aug-25 07:29N 40°44' E 024°50'2 4.4
2017-Aug-25 07:00N 40°45' E 024°47'2 4.9
2017-Aug-25 06:30N 40°47' E 024°45'2 3.0
2017-Aug-25 05:59N 40°47' E 024°42'0 0.0
2017-Aug-23 11:39N 40°47' E 024°42'0 0.0
2017-Aug-23 11:30N 40°47' E 024°42'1 2.1
2017-Aug-23 11:00N 40°47' E 024°41'3 5.6
2017-Aug-23 10:30N 40°49' E 024°38'3 5.9
2017-Aug-23 10:00N 40°51' E 024°35'3 5.6
2017-Aug-23 09:30N 40°52' E 024°32'2 3.9
2017-Aug-23 09:00N 40°53' E 024°30'2 4.7
2017-Aug-23 08:30N 40°54' E 024°27'2 4.0
2017-Aug-23 08:00N 40°55' E 024°25'1 1.2
2017-Aug-23 07:26N 40°56' E 024°24'0 0.0
2017-Aug-22 09:04N 40°56' E 024°24'0 0.0
2017-Aug-22 08:58N 40°56' E 024°24'0 0.0
2017-Aug-21 10:45N 40°56' E 024°24'0 0.0
2017-Aug-21 10:27N 40°56' E 024°24'0 0.1
2017-Aug-21 09:58N 40°56' E 024°24'1 3.0
2017-Aug-21 09:30N 40°55' E 024°24'2 4.4
2017-Aug-21 09:00N 40°53' E 024°22'3 5.7
2017-Aug-21 08:30N 40°51' E 024°20'1 1.7
2017-Aug-21 07:57N 40°51' E 024°19'0 0.0
2017-Aug-21 06:18N 40°51' E 024°19'  

Dump ship's entire track history